Grande Portogallo — IBZW — position and weather

sailwx.info

Track history (hours):
 
Tides and Currents Weather Stations Pressure Air Temp Water Temp Dewpoint Dewpoint Depression Visibility Wind Speed Wind Dir Waves Ship Positions

Grande Portogallo

Last reported at 2014-Dec-21 11:33 UTC. Time now 2014-Dec-21 20:07 UTC.
Position N 37°29' W 000°40'.

Length 176 m; draft 8.2 m.

Type: Cargo ship. MMSI: 247065500.

Date/timePositionNaut miles runAvg speedWind from/ knotsBaromVisibWave heightAir tempDewpointWater temp
2014-Dec-21 11:33N 37°29' W 000°40'1717.1
2014-Dec-21 10:33N 37°42' W 000°26'1716.7
2014-Dec-21 09:33N 37°57' W 000°16'8713.6
2014-Dec-21 03:11N 39°24' W 000°15'3 5.2
2014-Dec-21 02:32N 39°26' W 000°18'0 0.0
2014-Dec-21 01:32N 39°26' W 000°18'0 0.0
2014-Dec-21 00:32N 39°26' W 000°18'0 0.0
2014-Dec-20 23:32N 39°26' W 000°18'0 0.0
2014-Dec-20 22:32N 39°26' W 000°18'0 0.0
2014-Dec-20 21:32N 39°26' W 000°18'0 0.0
2014-Dec-20 20:32N 39°26' W 000°18'0 0.0
2014-Dec-20 19:32N 39°26' W 000°18'0 0.0
2014-Dec-20 18:32N 39°26' W 000°18'0 0.0
2014-Dec-20 17:32N 39°26' W 000°18'0 0.0
2014-Dec-20 16:32N 39°26' W 000°18'0 0.0
2014-Dec-20 15:32N 39°26' W 000°18'0 0.0
2014-Dec-20 14:32N 39°26' W 000°18'0 0.0
2014-Dec-20 13:32N 39°26' W 000°18'3 3.0
2014-Dec-20 12:33N 39°25' W 000°15'6218.1
2014-Dec-20 09:10N 39°15' E 001°04'1118.1
2014-Dec-20 08:33N 39°14' E 001°17'1818.0
2014-Dec-20 07:33N 39°11' E 001°41'1818.4
2014-Dec-20 06:33N 39°08' E 002°04'1918.6
2014-Dec-20 05:33N 39°06' E 002°28'1818.3
2014-Dec-20 04:34N 39°03' E 002°51'1818.1
2014-Dec-20 03:33N 39°01' E 003°14'1918.3
2014-Dec-20 02:32N 38°60' E 003°38'21317.5
2014-Dec-19 14:22N 38°47' E 008°12'1214.2
2014-Dec-19 13:33N 38°47' E 008°27'8 7.0
2014-Dec-19 12:26N 38°47' E 008°37'1415.5
2014-Dec-19 11:34N 38°48' E 008°54'1616.1
2014-Dec-19 10:33N 38°53' E 009°14'22316.9
2014-Dec-18 21:21N 40°18' E 013°42'1416.9
2014-Dec-18 20:32N 40°24' E 013°59'1917.2
2014-Dec-18 19:24N 40°30' E 014°22'16 0.4
2014-Dec-17 07:22N 40°32' E 014°43'50614.0
2014-Dec-15 19:06N 36°05' E 023°51'916.1
2014-Dec-15 18:33N 36°05' E 024°02'1615.9
2014-Dec-15 17:34N 36°05' E 024°22'1615.9
2014-Dec-15 16:33N 36°05' E 024°42'1615.8
2014-Dec-15 15:34N 36°06' E 025°01'1616.1
2014-Dec-15 14:34N 36°06' E 025°21'1616.0
2014-Dec-15 13:34N 36°07' E 025°41'1615.8
2014-Dec-15 12:33N 36°07' E 026°00'1515.3
2014-Dec-15 11:33N 36°07' E 026°19'1815.6
2014-Dec-15 10:25N 36°04' E 026°41'28414.9
2014-Dec-14 15:23N 35°56' E 032°32'1415.8
2014-Dec-14 14:28N 35°55' E 032°49'  
Track history (hours):
 
Tides and Currents Weather Stations Pressure Air Temp Water Temp Dewpoint Dewpoint Depression Visibility Wind Speed Wind Dir Waves Ship Positions

Grande Portogallo

Last reported at 2014-Dec-21 11:33 UTC. Time now 2014-Dec-21 20:07 UTC.
Position N 37°29' W 000°40'.

Length 176 m; draft 8.2 m.

Type: Cargo ship. MMSI: 247065500.

Date/timePositionNaut miles runAvg speedWind from/ knotsBaromVisibWave heightAir tempDewpointWater temp
2014-Dec-21 11:33N 37°29' W 000°40'1717.1
2014-Dec-21 10:33N 37°42' W 000°26'1716.7
2014-Dec-21 09:33N 37°57' W 000°16'8713.6
2014-Dec-21 03:11N 39°24' W 000°15'3 5.2
2014-Dec-21 02:32N 39°26' W 000°18'0 0.0
2014-Dec-21 01:32N 39°26' W 000°18'0 0.0
2014-Dec-21 00:32N 39°26' W 000°18'0 0.0
2014-Dec-20 23:32N 39°26' W 000°18'0 0.0
2014-Dec-20 22:32N 39°26' W 000°18'0 0.0
2014-Dec-20 21:32N 39°26' W 000°18'0 0.0
2014-Dec-20 20:32N 39°26' W 000°18'0 0.0
2014-Dec-20 19:32N 39°26' W 000°18'0 0.0
2014-Dec-20 18:32N 39°26' W 000°18'0 0.0
2014-Dec-20 17:32N 39°26' W 000°18'0 0.0
2014-Dec-20 16:32N 39°26' W 000°18'0 0.0
2014-Dec-20 15:32N 39°26' W 000°18'0 0.0
2014-Dec-20 14:32N 39°26' W 000°18'0 0.0
2014-Dec-20 13:32N 39°26' W 000°18'3 3.0
2014-Dec-20 12:33N 39°25' W 000°15'6218.1
2014-Dec-20 09:10N 39°15' E 001°04'1118.1
2014-Dec-20 08:33N 39°14' E 001°17'1818.0
2014-Dec-20 07:33N 39°11' E 001°41'1818.4
2014-Dec-20 06:33N 39°08' E 002°04'1918.6
2014-Dec-20 05:33N 39°06' E 002°28'1818.3
2014-Dec-20 04:34N 39°03' E 002°51'1818.1
2014-Dec-20 03:33N 39°01' E 003°14'1918.3
2014-Dec-20 02:32N 38°60' E 003°38'21317.5
2014-Dec-19 14:22N 38°47' E 008°12'1214.2
2014-Dec-19 13:33N 38°47' E 008°27'8 7.0
2014-Dec-19 12:26N 38°47' E 008°37'1415.5
2014-Dec-19 11:34N 38°48' E 008°54'1616.1
2014-Dec-19 10:33N 38°53' E 009°14'22316.9
2014-Dec-18 21:21N 40°18' E 013°42'1416.9
2014-Dec-18 20:32N 40°24' E 013°59'1917.2
2014-Dec-18 19:24N 40°30' E 014°22'16 0.4
2014-Dec-17 07:22N 40°32' E 014°43'50614.0
2014-Dec-15 19:06N 36°05' E 023°51'916.1
2014-Dec-15 18:33N 36°05' E 024°02'1615.9
2014-Dec-15 17:34N 36°05' E 024°22'1615.9
2014-Dec-15 16:33N 36°05' E 024°42'1615.8
2014-Dec-15 15:34N 36°06' E 025°01'1616.1
2014-Dec-15 14:34N 36°06' E 025°21'1616.0
2014-Dec-15 13:34N 36°07' E 025°41'1615.8
2014-Dec-15 12:33N 36°07' E 026°00'1515.3
2014-Dec-15 11:33N 36°07' E 026°19'1815.6
2014-Dec-15 10:25N 36°04' E 026°41'28414.9
2014-Dec-14 15:23N 35°56' E 032°32'1415.8
2014-Dec-14 14:28N 35°55' E 032°49'  

Dump ship's entire track history